createdAt,value
2022-11-15T00:01:19.035Z,42.08
2022-11-15T00:03:48.910Z,42.08
2022-11-15T00:06:16.911Z,45.38
2022-11-15T00:08:45.347Z,46.17
2022-11-15T00:11:14.428Z,35.15
2022-11-15T00:13:43.244Z,36.30
2022-11-15T00:16:11.513Z,34.88
2022-11-15T00:18:40.175Z,33.10
2022-11-15T00:21:12.195Z,41.58
2022-11-15T00:23:40.641Z,33.45
2022-11-15T00:26:09.330Z,29.58
2022-11-15T00:28:37.882Z,35.55
2022-11-15T00:31:07.532Z,35.83
2022-11-15T00:33:36.125Z,26.95
2022-11-15T00:36:05.642Z,40.75
2022-11-15T00:38:35.646Z,41.15
2022-11-15T00:41:09.049Z,29.58
2022-11-15T00:43:38.460Z,32.00
2022-11-15T00:46:07.050Z,28.15
2022-11-15T00:48:35.369Z,31.15
2022-11-15T00:51:03.817Z,22.55
2022-11-15T00:53:32.616Z,28.45
2022-11-15T00:56:02.333Z,27.98
2022-11-15T00:58:30.764Z,30.20
2022-11-15T01:00:58.875Z,28.05
2022-11-15T01:03:27.369Z,31.73
2022-11-15T01:05:55.626Z,31.10
2022-11-15T01:08:24.030Z,30.38
2022-11-15T01:10:52.091Z,30.08
2022-11-15T01:13:21.810Z,24.08
2022-11-15T01:15:49.790Z,25.70
2022-11-15T01:18:18.099Z,24.45
2022-11-15T01:20:46.303Z,33.08
2022-11-15T01:23:14.669Z,25.83
2022-11-15T01:25:42.796Z,37.45
2022-11-15T01:28:11.206Z,26.23
2022-11-15T01:30:40.710Z,23.42
2022-11-15T01:33:09.111Z,26.35
2022-11-15T01:35:40.852Z,27.92
2022-11-15T01:38:09.539Z,34.10
2022-11-15T01:40:37.539Z,27.45
2022-11-15T01:43:21.355Z,26.52
2022-11-15T01:45:54.619Z,31.95
2022-11-15T01:48:23.278Z,26.02
2022-11-15T01:50:52.117Z,25.50
2022-11-15T01:53:22.273Z,29.98
2022-11-15T01:55:50.321Z,28.88
2022-11-15T01:58:18.974Z,27.38
2022-11-15T02:00:48.837Z,28.80
2022-11-15T02:03:18.831Z,26.00
2022-11-15T02:05:46.820Z,27.73
2022-11-15T02:08:21.203Z,31.58
2022-11-15T02:10:49.320Z,28.63
2022-11-15T02:13:18.660Z,30.33
2022-11-15T02:15:55.314Z,31.15
2022-11-15T02:18:30.283Z,34.30
2022-11-15T02:21:08.424Z,31.77
2022-11-15T02:24:18.280Z,36.45
2022-11-15T02:27:33.057Z,26.08
2022-11-15T02:30:21.161Z,41.63
2022-11-15T02:32:52.890Z,33.53
2022-11-15T02:35:28.457Z,36.35
2022-11-15T02:37:59.222Z,27.50
2022-11-15T02:40:36.390Z,45.10
2022-11-15T02:43:27.654Z,27.75
2022-11-15T02:48:28.168Z,31.63
2022-11-15T02:50:56.677Z,28.70
2022-11-15T02:53:26.666Z,27.77
2022-11-15T02:55:56.207Z,30.30
2022-11-15T02:58:37.635Z,34.53
2022-11-15T03:01:14.565Z,27.50
2022-11-15T03:03:51.407Z,29.83
2022-11-15T03:06:27.751Z,33.05
2022-11-15T03:09:04.424Z,23.17
2022-11-15T03:11:35.076Z,28.52
2022-11-15T03:14:07.196Z,24.27
2022-11-15T03:16:39.728Z,24.80
2022-11-15T03:19:12.799Z,25.38
2022-11-15T03:21:42.322Z,23.75
2022-11-15T03:24:11.005Z,33.10
2022-11-15T03:26:41.561Z,23.15
2022-11-15T03:29:14.031Z,25.60
2022-11-15T03:31:51.191Z,27.58
2022-11-15T03:34:26.742Z,23.08
2022-11-15T03:36:55.292Z,21.10
2022-11-15T03:39:24.270Z,23.30
2022-11-15T03:41:59.458Z,32.67
2022-11-15T03:44:37.293Z,28.98
2022-11-15T03:47:11.187Z,24.80
2022-11-15T03:49:41.685Z,24.58
2022-11-15T03:52:12.321Z,24.75
2022-11-15T03:54:50.298Z,27.33
2022-11-15T03:57:18.847Z,25.80
2022-11-15T03:59:46.881Z,27.50
2022-11-15T04:02:17.628Z,23.33
2022-11-15T04:04:45.693Z,27.48
2022-11-15T04:07:14.571Z,24.58
2022-11-15T04:09:57.223Z,24.52
2022-11-15T04:12:31.841Z,23.10
2022-11-15T04:15:19.130Z,30.60
2022-11-15T04:17:50.422Z,26.60
2022-11-15T04:20:37.518Z,27.70
2022-11-15T04:23:25.217Z,27.08
2022-11-15T04:25:54.402Z,30.33
2022-11-15T04:28:23.005Z,28.25
2022-11-15T04:30:51.049Z,26.67
2022-11-15T04:33:21.128Z,28.52
2022-11-15T04:36:09.479Z,25.85
2022-11-15T04:38:38.643Z,24.42
2022-11-15T04:41:06.809Z,23.73
2022-11-15T04:43:35.444Z,23.85
2022-11-15T04:46:03.600Z,22.50
2022-11-15T04:48:33.490Z,26.17
2022-11-15T04:51:01.578Z,24.95
2022-11-15T04:53:30.416Z,23.33
2022-11-15T04:55:58.891Z,29.20
2022-11-15T04:58:27.217Z,27.00
2022-11-15T05:00:55.359Z,28.92
2022-11-15T05:03:41.393Z,30.58
2022-11-15T05:06:10.987Z,33.45
2022-11-15T05:08:39.409Z,34.92
2022-11-15T05:11:07.859Z,33.97
2022-11-15T05:13:36.254Z,25.60
2022-11-15T05:16:04.486Z,26.73
2022-11-15T05:18:32.906Z,28.08
2022-11-15T05:21:05.498Z,34.78
2022-11-15T05:23:35.646Z,31.65
2022-11-15T05:26:08.988Z,27.33
2022-11-15T05:28:38.210Z,29.55
2022-11-15T05:31:07.983Z,28.15
2022-11-15T05:33:36.902Z,33.58
2022-11-15T05:36:07.617Z,29.58
2022-11-15T05:38:37.704Z,30.77
2022-11-15T05:41:06.743Z,31.83
2022-11-15T05:43:37.668Z,29.98
2022-11-15T05:46:07.032Z,31.00
2022-11-15T05:48:36.613Z,25.77
2022-11-15T05:51:05.050Z,28.77
2022-11-15T05:53:34.007Z,28.20
2022-11-15T05:56:04.801Z,31.05
2022-11-15T05:58:33.295Z,32.95
2022-11-15T06:01:01.954Z,29.98
2022-11-15T06:03:30.717Z,35.42
2022-11-15T06:05:59.215Z,31.50
2022-11-15T06:08:27.581Z,37.63
2022-11-15T06:10:55.898Z,43.25
2022-11-15T06:13:25.700Z,55.80
2022-11-15T06:15:57.578Z,48.08
2022-11-15T06:18:26.035Z,42.72
2022-11-15T06:20:54.224Z,40.35
2022-11-15T06:23:22.594Z,40.85
2022-11-15T06:25:50.858Z,41.97
2022-11-15T06:28:19.155Z,46.20
2022-11-15T06:30:52.987Z,43.67
2022-11-15T06:33:21.803Z,38.70
2022-11-15T06:35:49.962Z,37.15
2022-11-15T06:38:18.429Z,41.30
2022-11-15T06:40:46.434Z,38.88
2022-11-15T06:43:15.725Z,42.13
2022-11-15T06:45:43.857Z,40.60
2022-11-15T06:48:13.649Z,51.10
2022-11-15T06:50:41.683Z,50.97
2022-11-15T06:53:10.157Z,61.70
2022-11-15T06:55:39.772Z,55.90
2022-11-15T06:58:08.156Z,54.22
2022-11-15T07:00:36.250Z,54.75
2022-11-15T07:03:05.097Z,57.42
2022-11-15T07:05:34.492Z,54.13
2022-11-15T07:08:03.013Z,53.40
2022-11-15T07:10:31.089Z,54.38
2022-11-15T07:12:59.469Z,53.95
2022-11-15T07:15:28.029Z,50.38
2022-11-15T07:17:56.568Z,53.30
2022-11-15T07:20:24.812Z,47.08
2022-11-15T07:23:01.972Z,45.60
2022-11-15T07:25:30.077Z,47.40
2022-11-15T07:27:58.907Z,47.15
2022-11-15T07:30:27.905Z,47.10
2022-11-15T07:32:56.468Z,46.67
2022-11-15T07:35:24.984Z,51.90
2022-11-15T07:37:58.800Z,48.45
2022-11-15T07:40:27.431Z,43.22
2022-11-15T07:43:01.689Z,47.78
2022-11-15T07:45:29.750Z,41.63
2022-11-15T07:47:58.385Z,40.85
2022-11-15T07:50:26.484Z,41.88
2022-11-15T07:53:00.468Z,38.60
2022-11-15T07:55:30.726Z,36.55
2022-11-15T07:58:03.409Z,32.38
2022-11-15T08:00:31.922Z,30.75
2022-11-15T08:03:04.653Z,31.65
2022-11-15T08:05:33.188Z,30.55
2022-11-15T08:08:03.058Z,28.20
2022-11-15T08:10:34.225Z,30.67
2022-11-15T08:13:07.699Z,26.52
2022-11-15T08:15:37.028Z,32.65
2022-11-15T08:18:07.167Z,29.85
2022-11-15T08:20:35.252Z,26.30
2022-11-15T08:23:06.448Z,28.70
2022-11-15T08:25:35.916Z,27.00
2022-11-15T08:28:05.676Z,26.95
2022-11-15T08:30:37.366Z,32.10
2022-11-15T08:33:06.087Z,29.75
2022-11-15T08:35:34.214Z,31.15
2022-11-15T08:38:04.135Z,31.77
2022-11-15T08:40:32.250Z,30.05
2022-11-15T08:43:03.659Z,27.73
2022-11-15T08:45:32.071Z,25.98
2022-11-15T08:48:03.120Z,25.35
2022-11-15T08:50:31.167Z,26.33
2022-11-15T08:52:59.792Z,24.35
2022-11-15T08:55:29.484Z,25.52
2022-11-15T08:57:59.314Z,28.75
2022-11-15T09:00:27.587Z,27.65
2022-11-15T09:02:55.984Z,28.38
2022-11-15T09:05:24.125Z,29.23
2022-11-15T09:07:55.152Z,26.92
2022-11-15T09:10:23.303Z,23.13
2022-11-15T09:12:53.193Z,24.70
2022-11-15T09:15:21.882Z,32.38
2022-11-15T09:17:50.307Z,29.70
2022-11-15T09:20:18.710Z,21.88
2022-11-15T09:22:47.213Z,21.23
2022-11-15T09:25:15.758Z,28.88
2022-11-15T09:27:44.095Z,26.27
2022-11-15T09:30:14.766Z,21.13
2022-11-15T09:32:43.142Z,24.77
2022-11-15T09:35:11.380Z,20.67
2022-11-15T09:37:39.871Z,22.73
2022-11-15T09:40:10.568Z,20.58
2022-11-15T09:42:51.145Z,26.17
2022-11-15T09:45:23.172Z,16.95
2022-11-15T09:48:01.843Z,21.98
2022-11-15T09:50:36.665Z,22.92
2022-11-15T09:53:05.298Z,42.42
2022-11-15T09:55:39.916Z,31.67
2022-11-15T09:58:16.182Z,26.13
2022-11-15T10:00:49.708Z,25.42
2022-11-15T10:03:20.431Z,28.77
2022-11-15T10:05:50.822Z,24.45
2022-11-15T10:11:09.616Z,16.42
2022-11-15T10:16:26.960Z,17.33
2022-11-15T10:19:02.333Z,15.85
2022-11-15T10:21:36.628Z,17.52
2022-11-15T10:24:12.840Z,17.25
2022-11-15T10:26:41.389Z,17.58
2022-11-15T10:29:09.685Z,18.00
2022-11-15T10:31:41.755Z,17.27
2022-11-15T10:34:15.152Z,17.45
2022-11-15T10:36:50.288Z,18.05
2022-11-15T10:39:18.907Z,20.98
2022-11-15T10:41:47.162Z,20.70
2022-11-15T10:44:29.300Z,20.88
2022-11-15T10:47:24.056Z,24.02
2022-11-15T10:50:00.575Z,22.25
2022-11-15T10:52:29.529Z,23.35
2022-11-15T10:54:59.862Z,18.77
2022-11-15T10:57:29.801Z,22.38
2022-11-15T11:00:00.749Z,22.88
2022-11-15T11:05:00.778Z,20.23
2022-11-15T11:07:30.520Z,18.83
2022-11-15T11:10:00.574Z,18.00
2022-11-15T11:12:33.505Z,23.70
2022-11-15T11:15:03.490Z,23.00
2022-11-15T11:17:43.132Z,21.58
2022-11-15T11:20:19.597Z,20.38
2022-11-15T11:23:00.527Z,20.92
2022-11-15T11:25:35.390Z,20.27
2022-11-15T11:28:25.780Z,22.58
2022-11-15T11:31:02.904Z,22.73
2022-11-15T11:33:34.995Z,23.33
2022-11-15T11:36:12.183Z,21.70
2022-11-15T11:38:49.525Z,23.02
2022-11-15T11:41:26.543Z,22.00
2022-11-15T11:44:01.932Z,25.83
2022-11-15T11:46:50.625Z,22.70
2022-11-15T11:49:24.119Z,26.58
2022-11-15T11:51:57.628Z,27.92
2022-11-15T11:54:28.984Z,25.35
2022-11-15T11:56:59.486Z,25.17
2022-11-15T11:59:34.371Z,26.63
2022-11-15T12:02:05.044Z,27.58
2022-11-15T12:04:39.948Z,27.45
2022-11-15T12:07:13.465Z,26.08
2022-11-15T12:09:43.977Z,26.80
2022-11-15T12:12:17.709Z,27.63
2022-11-15T12:14:49.049Z,27.10
2022-11-15T12:17:20.173Z,26.98
2022-11-15T12:19:49.661Z,24.77
2022-11-15T12:22:22.099Z,26.80
2022-11-15T12:24:54.588Z,30.20
2022-11-15T12:27:31.555Z,28.10
2022-11-15T12:30:02.735Z,26.60
2022-11-15T12:32:33.902Z,27.63
2022-11-15T12:35:04.818Z,28.52
2022-11-15T12:43:42.804Z,29.05
2022-11-15T12:46:15.811Z,30.92
2022-11-15T12:48:50.311Z,29.67
2022-11-15T12:51:22.501Z,27.67
2022-11-15T12:53:51.296Z,25.33
2022-11-15T12:56:26.663Z,27.63
2022-11-15T12:58:57.874Z,30.65
2022-11-15T13:02:00.404Z,30.98
2022-11-15T13:04:31.141Z,30.35
2022-11-15T13:07:02.358Z,32.22
2022-11-15T13:09:53.519Z,33.70
2022-11-15T13:12:57.016Z,36.60
2022-11-15T13:15:43.011Z,32.72
2022-11-15T13:18:35.345Z,38.95
2022-11-15T13:21:27.261Z,40.38
2022-11-15T13:23:57.650Z,32.00
2022-11-15T13:26:26.615Z,32.67
2022-11-15T13:28:56.480Z,34.80
2022-11-15T13:31:30.998Z,34.95
2022-11-15T13:34:02.516Z,33.03
2022-11-15T13:36:34.293Z,30.42
2022-11-15T13:39:05.651Z,30.90
2022-11-15T13:41:35.479Z,34.10
2022-11-15T13:44:04.908Z,34.13
2022-11-15T13:46:34.767Z,35.47
2022-11-15T13:49:04.347Z,42.50
2022-11-15T13:51:37.904Z,35.80
2022-11-15T13:54:14.974Z,44.17
2022-11-15T13:56:45.434Z,43.38
2022-11-15T13:59:17.892Z,45.55
2022-11-15T14:01:46.501Z,47.55
2022-11-15T14:04:16.255Z,45.38
2022-11-15T14:06:49.572Z,41.30
2022-11-15T14:09:36.625Z,42.25
2022-11-15T14:12:24.739Z,39.03
2022-11-15T14:14:53.191Z,58.70
2022-11-15T14:17:24.754Z,54.22
2022-11-15T14:22:23.678Z,73.30
2022-11-15T14:25:17.333Z,54.55
2022-11-15T14:27:47.404Z,55.55
2022-11-15T14:30:16.973Z,49.10
2022-11-15T14:32:47.625Z,51.08
2022-11-15T14:35:17.573Z,53.35
2022-11-15T14:37:46.030Z,55.42
2022-11-15T14:40:18.255Z,53.22
2022-11-15T14:42:47.849Z,49.53
2022-11-15T14:45:18.127Z,51.50
2022-11-15T14:47:46.765Z,49.83
2022-11-15T14:50:15.996Z,52.80
2022-11-15T14:52:44.788Z,51.75
2022-11-15T14:55:19.664Z,49.22
2022-11-15T14:57:48.180Z,49.60
2022-11-15T15:00:17.123Z,51.30
2022-11-15T15:02:47.244Z,56.70
2022-11-15T15:05:17.329Z,50.33
2022-11-15T15:07:45.850Z,50.42
2022-11-15T15:10:38.947Z,62.72
2022-11-15T15:13:05.627Z,58.00
2022-11-15T15:15:35.206Z,55.38
2022-11-15T15:18:05.667Z,55.30
2022-11-15T15:20:34.095Z,54.83
2022-11-15T15:23:02.448Z,78.80
2022-11-15T15:25:31.430Z,71.55
2022-11-15T15:28:00.013Z,67.82
2022-11-15T15:30:31.193Z,57.00
2022-11-15T15:35:31.342Z,57.30
2022-11-15T15:37:59.954Z,61.75
2022-11-15T15:40:30.648Z,71.35
2022-11-15T15:42:59.025Z,62.20
2022-11-15T15:45:29.277Z,60.38
2022-11-15T15:47:57.997Z,61.67
2022-11-15T15:50:27.617Z,63.58
2022-11-15T15:52:57.105Z,58.00
2022-11-15T15:55:25.740Z,57.20
2022-11-15T15:57:54.393Z,49.85
2022-11-15T16:00:24.570Z,51.47
2022-11-15T16:02:54.888Z,51.75
2022-11-15T16:05:23.678Z,50.15
2022-11-15T16:07:52.377Z,46.13
2022-11-15T16:10:24.078Z,48.88
2022-11-15T16:12:53.187Z,46.53
2022-11-15T16:15:22.156Z,47.20
2022-11-15T16:17:52.536Z,51.45
2022-11-15T16:20:32.285Z,57.25
2022-11-15T16:23:05.781Z,56.53
2022-11-15T16:25:39.460Z,56.35
2022-11-15T16:28:15.573Z,47.72
2022-11-15T16:30:43.711Z,51.55
2022-11-15T16:33:13.988Z,59.70
2022-11-15T16:35:43.560Z,52.47
2022-11-15T16:38:15.914Z,52.10
2022-11-15T16:40:44.445Z,51.22
2022-11-15T16:43:13.222Z,51.08
2022-11-15T16:45:41.409Z,48.88
2022-11-15T16:48:21.648Z,46.55
2022-11-15T16:50:51.330Z,51.67
2022-11-15T16:53:19.742Z,55.50
2022-11-15T16:55:48.016Z,56.20
2022-11-15T16:58:16.367Z,54.53
2022-11-15T17:00:44.559Z,58.45
2022-11-15T17:03:13.100Z,52.83
2022-11-15T17:05:41.316Z,64.47
2022-11-15T17:08:11.017Z,53.40
2022-11-15T17:10:41.279Z,49.40
2022-11-15T17:13:10.244Z,49.03
2022-11-15T17:15:38.401Z,49.90
2022-11-15T17:18:07.575Z,52.10
2022-11-15T17:20:35.661Z,57.78
2022-11-15T17:23:04.006Z,61.17
2022-11-15T17:25:33.475Z,61.35
2022-11-15T17:28:02.085Z,59.10
2022-11-15T17:30:30.317Z,62.50
2022-11-15T17:32:58.610Z,78.07
2022-11-15T17:35:29.740Z,106.95
2022-11-15T17:40:26.311Z,82.82
2022-11-15T17:42:57.138Z,77.47
2022-11-15T17:45:25.243Z,103.78
2022-11-15T17:47:53.886Z,81.68
2022-11-15T17:50:22.023Z,81.88
2022-11-15T17:52:50.391Z,81.22
2022-11-15T17:55:18.593Z,75.88
2022-11-15T17:57:46.994Z,75.35
2022-11-15T18:00:19.684Z,69.10
2022-11-15T18:02:48.227Z,73.70
2022-11-15T18:05:16.387Z,74.50
2022-11-15T18:07:44.885Z,71.30
2022-11-15T18:10:13.040Z,81.22
2022-11-15T18:12:42.391Z,78.00
2022-11-15T18:15:10.735Z,75.85
2022-11-15T18:17:40.542Z,76.38
2022-11-15T18:20:10.211Z,78.45
2022-11-15T18:22:38.631Z,74.30
2022-11-15T18:25:07.382Z,66.00
2022-11-15T18:27:35.828Z,79.93
2022-11-15T18:30:03.875Z,64.90
2022-11-15T18:32:32.356Z,68.80
2022-11-15T18:35:01.959Z,62.83
2022-11-15T18:37:30.972Z,69.25
2022-11-15T18:39:59.030Z,64.68
2022-11-15T18:42:27.517Z,58.60
2022-11-15T18:44:55.671Z,59.28
2022-11-15T18:47:24.112Z,55.35
2022-11-15T18:49:52.281Z,53.10
2022-11-15T18:52:22.723Z,63.28
2022-11-15T18:54:50.929Z,75.28
2022-11-15T18:57:19.363Z,66.45
2022-11-15T18:59:47.500Z,64.00
2022-11-15T19:02:15.869Z,66.28
2022-11-15T19:04:43.971Z,61.80
2022-11-15T19:07:12.383Z,62.22
2022-11-15T19:09:41.984Z,55.15
2022-11-15T19:12:10.295Z,56.05
2022-11-15T19:14:38.533Z,51.35
2022-11-15T19:17:07.071Z,60.20
2022-11-15T19:19:35.164Z,70.88
2022-11-15T19:22:03.582Z,71.60
2022-11-15T19:24:31.908Z,73.35
2022-11-15T19:27:01.719Z,70.45
2022-11-15T19:29:29.934Z,69.20
2022-11-15T19:31:58.455Z,65.53
2022-11-15T19:34:26.603Z,71.18
2022-11-15T19:36:55.264Z,69.00
2022-11-15T19:39:23.383Z,70.15
2022-11-15T19:41:51.879Z,76.15
2022-11-15T19:44:22.858Z,80.00
2022-11-15T19:46:51.296Z,77.72
2022-11-15T19:49:19.789Z,91.63
2022-11-15T19:51:48.563Z,113.25
2022-11-15T19:54:17.371Z,86.10
2022-11-15T19:56:45.775Z,86.88
2022-11-15T19:59:14.363Z,90.97
2022-11-15T20:01:44.221Z,91.40
2022-11-15T20:04:12.350Z,94.32
2022-11-15T20:06:42.819Z,133.10
2022-11-15T20:09:13.894Z,89.32
2022-11-15T20:14:11.774Z,90.38
2022-11-15T20:16:40.501Z,79.97
2022-11-15T20:19:10.064Z,86.60
2022-11-15T20:21:38.478Z,110.32
2022-11-15T20:24:07.678Z,81.10
2022-11-15T20:26:36.122Z,83.10
2022-11-15T20:29:04.331Z,83.38
2022-11-15T20:31:32.901Z,80.03
2022-11-15T20:34:01.296Z,80.88
2022-11-15T20:36:31.221Z,77.07
2022-11-15T20:39:00.268Z,89.95
2022-11-15T20:41:28.725Z,88.05
2022-11-15T20:43:56.903Z,89.30
2022-11-15T20:46:25.296Z,141.60
2022-11-15T20:48:53.427Z,86.72
2022-11-15T20:51:21.911Z,84.60
2022-11-15T20:53:51.538Z,82.65
2022-11-15T20:56:21.038Z,80.57
2022-11-15T20:58:50.530Z,76.88
2022-11-15T21:01:23.753Z,74.15
2022-11-15T21:03:52.725Z,88.00
2022-11-15T21:06:21.519Z,80.25
2022-11-15T21:09:09.136Z,76.32
2022-11-15T21:11:55.682Z,80.90
2022-11-15T21:14:23.940Z,75.22
2022-11-15T21:16:52.336Z,75.25
2022-11-15T21:19:25.702Z,70.50
2022-11-15T21:21:56.375Z,75.28
2022-11-15T21:24:26.847Z,74.13
2022-11-15T21:26:55.894Z,78.57
2022-11-15T21:29:24.065Z,82.18
2022-11-15T21:31:53.339Z,79.63
2022-11-15T21:34:21.926Z,81.47
2022-11-15T21:36:50.374Z,83.22
2022-11-15T21:39:18.425Z,86.72
2022-11-15T21:41:48.111Z,81.47
2022-11-15T21:44:16.185Z,84.57
2022-11-15T21:46:44.604Z,84.10
2022-11-15T21:49:12.841Z,81.65
2022-11-15T21:51:41.279Z,80.45
2022-11-15T21:54:09.488Z,78.13
2022-11-15T21:56:38.323Z,86.57
2022-11-15T21:59:07.925Z,91.03
2022-11-15T22:01:53.965Z,83.65
2022-11-15T22:04:24.141Z,84.30
2022-11-15T22:06:52.853Z,88.93
2022-11-15T22:09:21.076Z,88.82
2022-11-15T22:11:49.528Z,88.38
2022-11-15T22:14:19.203Z,80.70
2022-11-15T22:16:47.637Z,90.97
2022-11-15T22:19:15.884Z,88.78
2022-11-15T22:21:44.209Z,87.63
2022-11-15T22:24:12.654Z,88.75
2022-11-15T22:26:41.104Z,79.95
2022-11-15T22:29:09.174Z,78.85
2022-11-15T22:31:39.103Z,80.72
2022-11-15T22:34:07.171Z,80.80
2022-11-15T22:36:52.300Z,83.03
2022-11-15T22:39:23.861Z,81.38
2022-11-15T22:41:53.507Z,76.38
2022-11-15T22:44:22.236Z,79.80
2022-11-15T22:46:52.052Z,82.35
2022-11-15T22:49:20.132Z,75.13
2022-11-15T22:51:51.593Z,78.40
2022-11-15T22:54:19.704Z,74.60
2022-11-15T22:56:48.538Z,80.55
2022-11-15T22:59:16.716Z,74.45
2022-11-15T23:01:45.197Z,74.28
2022-11-15T23:04:14.628Z,75.50
2022-11-15T23:06:43.180Z,69.82
2022-11-15T23:09:11.518Z,68.75
2022-11-15T23:11:57.551Z,67.07
2022-11-15T23:14:25.854Z,74.75
2022-11-15T23:16:54.287Z,83.07
2022-11-15T23:19:24.128Z,75.97
2022-11-15T23:22:10.218Z,81.97
2022-11-15T23:24:38.487Z,78.10
2022-11-15T23:27:08.648Z,81.70
2022-11-15T23:29:58.464Z,108.90
2022-11-15T23:32:44.611Z,80.45
2022-11-15T23:35:14.154Z,71.65
2022-11-15T23:37:42.615Z,72.13
2022-11-15T23:40:12.396Z,74.30
2022-11-15T23:42:40.789Z,69.80
2022-11-15T23:45:09.467Z,63.63
2022-11-15T23:47:37.880Z,63.88
2022-11-15T23:50:06.840Z,60.38
2022-11-15T23:52:36.563Z,56.63
2022-11-15T23:55:05.025Z,61.83
2022-11-15T23:57:33.373Z,64.97
